createdAt,value
2019-05-17T04:33:17.668Z,100.00
2019-05-17T05:18:52.143Z,82.03
2019-05-17T10:54:43.298Z,82.03
2019-05-17T10:57:14.089Z,82.03
2019-05-17T11:00:19.557Z,50.85
2019-05-17T11:03:35.777Z,50.85
2019-05-17T11:07:44.950Z,50.85
2019-05-17T11:11:51.846Z,50.85
2019-05-17T11:14:22.622Z,50.85
2019-05-17T11:16:53.399Z,49.63
2019-05-17T11:21:17.811Z,100.00
2019-05-17T11:24:11.403Z,51.52
2019-05-17T11:30:52.810Z,51.52
2019-05-17T11:41:45.459Z,51.52
2019-05-17T11:44:28.290Z,51.52
2019-05-17T11:50:06.675Z,51.52
2019-05-17T11:52:37.595Z,51.52
2019-05-17T11:55:51.696Z,100.00
2019-05-17T11:58:22.691Z,51.52
2019-05-17T12:58:40.953Z,51.52
2019-05-17T13:26:27.857Z,51.52
2019-05-17T13:29:24.290Z,51.52
2019-05-17T13:33:12.024Z,51.52
2019-05-17T13:42:24.345Z,51.52
2019-05-17T13:44:55.140Z,51.52
2019-05-17T13:47:25.921Z,33.27
2019-05-17T13:49:56.712Z,30.79
2019-05-17T13:52:27.499Z,33.33
2019-05-17T13:54:58.306Z,34.90
2019-05-17T13:57:29.101Z,34.72
2019-05-17T13:59:59.983Z,36.86
2019-05-17T14:02:30.955Z,34.71
2019-05-17T14:05:03.843Z,34.62
2019-05-17T14:08:40.525Z,35.99
2019-05-17T14:20:52.405Z,35.99
2019-05-17T14:23:23.160Z,35.99
2019-05-17T14:25:58.550Z,32.73
2019-05-17T14:28:30.624Z,100.00
2019-05-17T14:31:11.159Z,32.73
2019-05-17T14:33:41.922Z,32.73
2019-05-17T14:37:07.719Z,31.60
2019-05-17T14:41:41.332Z,31.60
2019-05-17T14:55:17.124Z,31.60
2019-05-17T14:57:47.917Z,31.60
2019-05-17T15:00:19.708Z,29.05
2019-05-17T15:02:50.525Z,27.83
2019-05-17T15:05:21.302Z,29.45
2019-05-17T15:07:52.089Z,29.12
2019-05-17T15:10:22.897Z,31.06
2019-05-17T15:12:53.738Z,28.89
2019-05-17T15:15:26.363Z,32.06
2019-05-17T15:17:57.261Z,32.83
2019-05-17T15:20:28.025Z,33.18
2019-05-17T15:23:02.924Z,35.30
2019-05-17T16:15:56.105Z,41.42
2019-05-17T16:18:26.955Z,41.06
2019-05-17T16:20:57.735Z,41.06
2019-05-17T16:23:28.555Z,39.37
2019-05-17T16:25:59.342Z,42.43
2019-05-17T16:28:30.148Z,42.06
2019-05-17T16:31:00.949Z,42.95
2019-05-17T16:33:31.803Z,43.75
2019-05-17T16:36:02.572Z,44.56
2019-05-17T16:38:33.356Z,45.78
2019-05-17T16:41:04.583Z,44.22
2019-05-17T16:43:35.352Z,44.22
2019-05-17T16:46:06.128Z,44.76
2019-05-17T16:48:37.127Z,43.13
2019-05-17T16:51:07.888Z,43.54
2019-05-17T16:53:38.663Z,44.06
2019-05-17T16:56:09.443Z,45.93
2019-05-17T16:58:40.235Z,44.42
2019-05-17T17:01:11.210Z,45.39
2019-05-17T17:03:44.550Z,45.39
2019-05-17T17:06:15.010Z,46.02
2019-05-17T17:08:45.886Z,46.38
2019-05-17T17:11:16.673Z,46.02
2019-05-17T17:13:47.447Z,46.78
2019-05-17T17:16:18.229Z,45.91
2019-05-17T17:18:49.051Z,46.68
2019-05-17T17:21:19.828Z,47.96
2019-05-17T17:23:50.609Z,48.59
2019-05-17T17:26:21.384Z,48.47
2019-05-17T17:28:52.157Z,48.45
2019-05-17T17:31:23.052Z,47.63
2019-05-17T17:33:53.823Z,46.63
2019-05-17T17:36:24.625Z,47.40
2019-05-17T17:38:55.396Z,47.42
2019-05-17T17:41:26.888Z,48.87
2019-05-17T17:43:59.328Z,48.70
2019-05-17T17:46:30.265Z,49.91
2019-05-17T17:49:01.039Z,48.80
2019-05-17T17:51:32.224Z,49.75
2019-05-17T17:54:03.135Z,48.00
2019-05-17T17:56:33.870Z,49.33
2019-05-17T17:59:04.687Z,51.62
2019-05-17T18:01:35.432Z,51.97
2019-05-17T18:04:06.214Z,51.71
2019-05-17T18:06:37.016Z,51.97
2019-05-17T18:09:07.792Z,51.62
2019-05-17T18:11:38.587Z,51.30
2019-05-17T18:14:13.386Z,50.27
2019-05-17T18:16:42.054Z,51.07
2019-05-17T18:19:12.856Z,52.15
2019-05-17T18:21:43.640Z,52.70
2019-05-17T18:24:14.432Z,53.32
2019-05-17T18:26:45.213Z,50.87
2019-05-17T18:29:16.171Z,53.20
2019-05-17T18:31:46.950Z,52.77
2019-05-17T18:34:17.732Z,53.60
2019-05-17T18:36:48.623Z,53.60
2019-05-17T18:39:19.386Z,53.48
2019-05-17T18:41:50.181Z,53.50
2019-05-17T18:44:27.747Z,52.83
2019-05-17T18:46:53.655Z,53.40
2019-05-17T18:49:24.416Z,53.71
2019-05-17T18:51:55.221Z,53.27
2019-05-17T18:54:26.001Z,54.45
2019-05-17T18:56:56.794Z,53.89
2019-05-17T18:59:27.569Z,54.84
2019-05-17T19:01:58.339Z,55.44
2019-05-17T19:04:29.115Z,55.09
2019-05-17T19:06:59.896Z,56.26
2019-05-17T19:09:30.863Z,56.92
2019-05-17T19:12:01.645Z,57.45
2019-05-17T19:14:42.438Z,57.14
2019-05-17T19:17:05.204Z,57.57
2019-05-17T19:19:35.981Z,57.50
2019-05-17T19:22:06.770Z,58.85
2019-05-17T19:24:37.868Z,58.22
2019-05-17T19:27:08.671Z,56.75
2019-05-17T19:29:39.458Z,58.73
2019-05-17T19:32:10.228Z,58.68
2019-05-17T19:34:41.017Z,58.52
2019-05-17T19:37:11.803Z,59.01
2019-05-17T19:39:42.593Z,59.83
2019-05-17T19:42:13.402Z,60.39
2019-05-17T19:44:57.906Z,59.60
2019-05-17T19:47:16.853Z,60.51
2019-05-17T19:49:47.632Z,59.67
2019-05-17T19:52:18.450Z,59.92
2019-05-17T19:54:49.483Z,60.49
2019-05-17T19:57:20.280Z,60.67
2019-05-17T19:59:51.036Z,61.37
2019-05-17T20:02:21.836Z,59.85
2019-05-17T20:04:52.621Z,59.41
2019-05-17T20:07:23.431Z,59.13
2019-05-17T20:09:54.181Z,60.65
2019-05-17T20:12:25.007Z,59.55
2019-05-17T20:14:55.778Z,59.54
2019-05-17T20:17:26.556Z,60.11
2019-05-17T20:19:57.367Z,60.57
2019-05-17T20:22:28.139Z,61.68
2019-05-17T20:24:58.916Z,60.90
2019-05-17T20:27:29.714Z,60.43
2019-05-17T20:30:00.475Z,60.19
2019-05-17T20:32:31.257Z,60.31
2019-05-17T20:35:03.846Z,60.79
2019-05-17T20:37:34.638Z,61.13
2019-05-17T20:40:06.335Z,62.01
2019-05-17T20:42:37.122Z,62.79
2019-05-17T20:45:08.478Z,62.40
2019-05-17T20:47:39.261Z,62.44
2019-05-17T20:50:10.320Z,62.95
2019-05-17T20:52:41.098Z,63.16
2019-05-17T20:55:13.784Z,63.79
2019-05-17T20:57:44.587Z,64.19
2019-05-17T21:00:16.452Z,62.82
2019-05-17T21:02:47.243Z,63.18
2019-05-17T21:05:18.028Z,63.18
2019-05-17T21:07:48.793Z,64.62
2019-05-17T21:10:19.556Z,65.19
2019-05-17T21:12:50.335Z,65.88
2019-05-17T21:15:21.124Z,66.00
2019-05-17T21:17:51.910Z,65.70
2019-05-17T21:20:22.700Z,65.31
2019-05-17T21:22:53.470Z,66.24
2019-05-17T21:25:24.248Z,66.65
2019-05-17T21:27:55.004Z,65.58
2019-05-17T21:30:25.771Z,66.00
2019-05-17T21:32:56.539Z,65.18
2019-05-17T21:35:27.307Z,65.18
2019-05-17T21:37:58.075Z,66.26
2019-05-17T21:40:28.841Z,66.53
2019-05-17T21:42:59.611Z,67.33
2019-05-17T21:45:30.368Z,66.33
2019-05-17T21:48:01.159Z,66.83
2019-05-17T21:50:31.924Z,67.28
2019-05-17T21:53:02.692Z,66.52
2019-05-17T21:55:33.459Z,67.28
2019-05-17T21:58:04.281Z,67.26
2019-05-17T22:00:57.086Z,67.52
2019-05-17T22:03:27.878Z,67.36
2019-05-17T22:05:58.639Z,67.82
2019-05-17T22:08:29.428Z,68.04
2019-05-17T22:11:00.190Z,67.07
2019-05-17T22:13:30.962Z,67.77
2019-05-17T22:16:01.727Z,67.19
2019-05-17T22:18:32.544Z,67.59
2019-05-17T22:21:03.546Z,67.05
2019-05-17T22:23:34.282Z,67.09
2019-05-17T22:26:05.064Z,66.73
2019-05-17T22:28:35.847Z,66.29
2019-05-17T22:31:06.608Z,66.75
2019-05-17T22:33:37.386Z,66.13
2019-05-17T22:36:08.586Z,66.83
2019-05-17T22:38:39.324Z,67.25
2019-05-17T22:41:10.085Z,66.76
2019-05-17T22:43:40.863Z,67.98
2019-05-17T22:46:11.634Z,69.21
2019-05-17T22:48:42.416Z,70.49
2019-05-17T22:51:13.187Z,70.63
2019-05-17T22:53:43.988Z,70.58
2019-05-17T22:56:14.760Z,70.21
2019-05-17T22:58:45.534Z,69.89
2019-05-17T23:01:16.605Z,68.75
2019-05-17T23:03:47.477Z,68.24
2019-05-17T23:06:18.237Z,67.76
2019-05-17T23:08:49.025Z,68.41
2019-05-17T23:11:19.791Z,68.46
2019-05-17T23:13:50.892Z,68.21
2019-05-17T23:16:21.658Z,69.16
2019-05-17T23:19:08.483Z,68.71
2019-05-17T23:21:39.259Z,69.14
2019-05-17T23:24:10.039Z,67.88
2019-05-17T23:26:40.793Z,68.84
2019-05-17T23:29:11.561Z,70.11
2019-05-17T23:31:42.330Z,69.58
2019-05-17T23:34:13.096Z,69.62
2019-05-17T23:36:43.860Z,70.07
2019-05-17T23:39:14.646Z,70.25
2019-05-17T23:41:45.435Z,70.74
2019-05-17T23:44:16.199Z,69.85
2019-05-17T23:46:46.968Z,70.78
2019-05-17T23:49:17.749Z,70.93
2019-05-17T23:51:48.504Z,71.60
2019-05-17T23:54:19.276Z,71.45
2019-05-17T23:56:50.088Z,70.11
2019-05-17T23:59:20.827Z,71.74
